Time;durP1;ratioP1;P1;durP2;ratioP2;P2;SDS_P1;SDS_P2;PMS_P1;PMS_P2;Temp;Humidity;BMP_temperature;BMP_pressure;BME280_temperature;BME280_humidity;BME280_pressure;Samples;Min_cycle;Max_cycle;Signal;HPM_P1;HPM_P2
2021/03/29 00:00:48;;;;;;;21.38;7.03;;;14.70;47.60;;;;;;5091370;28;20040;-65
2021/03/29 00:03:15;;;;;;;24.27;5.55;;;;;;;;;;5073009;28;20044;-64
2021/03/29 00:05:43;;;;;;;20.40;6.53;;;14.70;47.90;;;;;;5094041;28;20089;-65
2021/03/29 00:08:10;;;;;;;17.42;5.90;;;;;;;;;;5076149;28;20450;-65
2021/03/29 00:10:39;;;;;;;27.60;6.25;;;14.40;48.20;;;;;;5094006;28;20429;-64
2021/03/29 00:13:07;;;;;;;14.18;5.43;;;14.50;48.40;;;;;;5094389;28;20052;-64
2021/03/29 00:15:38;;;;;;;17.67;6.00;;;14.60;48.30;;;;;;5092842;28;20059;-64
2021/03/29 00:18:10;;;;;;;17.45;6.57;;;14.70;48.10;;;;;;5094238;28;20048;-65
2021/03/29 00:20:40;;;;;;;23.55;5.93;;;14.60;48.20;;;;;;5094019;28;20047;-64
2021/03/29 00:23:08;;;;;;;19.42;6.90;;;;;;;;;;5093668;28;20470;-66
2021/03/29 00:25:35;;;;;;;18.95;6.75;;;14.70;47.90;;;;;;5076800;28;20041;-65
2021/03/29 00:28:03;;;;;;;18.92;6.22;;;14.60;47.80;;;;;;5074225;28;20071;-65
2021/03/29 00:30:34;;;;;;;19.98;6.18;;;14.70;48.10;;;;;;5055773;28;20048;-66
2021/03/29 00:33:01;;;;;;;19.65;6.57;;;;;;;;;;5073858;28;20043;-67
2021/03/29 00:35:31;;;;;;;16.05;6.43;;;14.50;48.80;;;;;;5073482;28;20045;-64
2021/03/29 00:37:59;;;;;;;18.50;6.72;;;14.40;48.80;;;;;;5073500;28;20040;-63
2021/03/29 00:40:27;;;;;;;26.15;6.38;;;14.30;48.90;;;;;;5073712;28;20048;-65
2021/03/29 00:43:10;;;;;;;18.15;6.55;;;14.20;49.40;;;;;;5073299;28;20430;-65
2021/03/29 00:45:38;;;;;;;18.33;6.55;;;14.10;49.70;;;;;;5073258;28;20050;-63
2021/03/29 00:48:07;;;;;;;24.80;7.18;;;13.90;50.20;;;;;;5073384;28;20410;-66
2021/03/29 00:50:50;;;;;;;17.30;6.13;;;13.90;50.40;;;;;;5055554;28;20048;-65
2021/03/29 00:53:20;;;;;;;18.23;5.80;;;;;;;;;;5042132;28;20056;-68
2021/03/29 00:55:49;;;;;;;20.45;6.68;;;13.70;50.80;;;;;;5056773;28;20456;-65
2021/03/29 00:58:20;;;;;;;20.23;6.25;;;13.70;50.50;;;;;;5073373;28;20053;-64
2021/03/29 01:00:53;;;;;;;21.25;6.90;;;13.80;50.40;;;;;;5073079;28;20037;-64
2021/03/29 01:03:26;;;;;;;17.38;6.68;;;13.80;50.60;;;;;;5073302;28;20123;-64
2021/03/29 01:06:10;;;;;;;23.63;6.85;;;14.00;50.20;;;;;;5072988;28;20074;-65
2021/03/29 01:08:40;;;;;;;20.83;6.95;;;13.80;50.40;;;;;;5073117;28;20070;-63
2021/03/29 01:11:13;;;;;;;18.65;5.82;;;13.90;50.30;;;;;;5072648;28;20076;-65
2021/03/29 01:13:47;;;;;;;18.95;6.25;;;13.90;49.90;;;;;;5072998;28;20498;-65
2021/03/29 01:16:17;;;;;;;24.73;6.63;;;13.90;50.20;;;;;;5071786;28;20506;-65
2021/03/29 01:18:46;;;;;;;21.73;6.47;;;13.90;50.40;;;;;;5073097;28;20503;-68
2021/03/29 01:21:36;;;;;;;28.83;6.65;;;13.90;50.40;;;;;;5072434;28;20487;-66
2021/03/29 01:24:13;;;;;;;22.95;7.30;;;14.00;50.00;;;;;;5072831;28;20044;-66
2021/03/29 01:26:45;;;;;;;17.75;6.82;;;14.00;49.90;;;;;;5073068;28;20033;-65
2021/03/29 01:29:16;;;;;;;21.52;7.28;;;13.90;50.10;;;;;;5072850;28;20048;-67
2021/03/29 01:31:45;;;;;;;19.60;6.63;;;13.80;50.50;;;;;;5059432;28;20118;-64
2021/03/29 01:34:14;;;;;;;19.52;6.55;;;13.80;50.60;;;;;;5072936;28;20033;-65
2021/03/29 01:36:44;;;;;;;17.75;6.38;;;13.80;50.60;;;;;;5071736;28;20060;-67
2021/03/29 01:39:13;;;;;;;16.98;6.65;;;13.60;50.60;;;;;;5072853;28;20060;-63
2021/03/29 01:41:42;;;;;;;19.08;6.40;;;13.90;50.50;;;;;;5072295;28;20067;-63
2021/03/29 01:44:09;;;;;;;14.70;6.72;;;;;;;;;;5072258;28;20048;-62
2021/03/29 01:46:37;;;;;;;25.00;8.60;;;13.60;50.60;;;;;;5072542;28;20037;-64
2021/03/29 01:49:04;;;;;;;16.15;6.07;;;13.60;50.80;;;;;;5054744;28;20051;-65
2021/03/29 01:51:31;;;;;;;18.83;6.85;;;13.60;50.90;;;;;;5071873;28;20044;-65
2021/03/29 01:53:58;;;;;;;20.38;6.85;;;;;;;;;;5072290;28;20402;-66
2021/03/29 01:56:25;;;;;;;27.50;7.53;;;;;;;;;;5072107;28;20073;-66
2021/03/29 01:58:52;;;;;;;19.63;6.60;;;;;;;;;;5072245;28;20445;-64
2021/03/29 02:01:20;;;;;;;26.10;6.93;;;;;;;;;;5072106;28;20052;-65
2021/03/29 02:03:48;;;;;;;19.02;7.25;;;13.90;49.50;;;;;;5071665;28;20048;-65
2021/03/29 02:06:15;;;;;;;21.83;8.05;;;;;;;;;;5072138;28;20047;-66
2021/03/29 02:08:43;;;;;;;26.35;7.60;;;13.80;49.10;;;;;;5072220;28;20439;-65
2021/03/29 02:11:11;;;;;;;20.23;6.57;;;13.90;49.10;;;;;;5072099;28;20363;-63
2021/03/29 02:13:40;;;;;;;15.65;6.18;;;13.90;49.30;;;;;;5071732;28;20140;-65
2021/03/29 02:16:15;;;;;;;21.27;6.55;;;13.70;49.60;;;;;;5071794;28;20494;-66
2021/03/29 02:18:42;;;;;;;22.30;6.68;;;;;;;;;;5053263;28;20122;-65
2021/03/29 02:21:14;;;;;;;21.08;7.05;;;13.70;49.60;;;;;;5071697;28;20037;-66
2021/03/29 02:23:46;;;;;;;25.08;7.20;;;13.90;49.10;;;;;;5070587;28;20059;-64
2021/03/29 02:26:13;;;;;;;19.77;6.63;;;;;;;;;;5071802;28;20050;-66
2021/03/29 02:28:40;;;;;;;23.98;8.05;;;14.10;48.30;;;;;;5071461;28;20055;-64
2021/03/29 02:31:07;;;;;;;14.88;6.38;;;;;;;;;;5071388;28;20045;-64
2021/03/29 02:33:35;;;;;;;21.75;7.43;;;;;;;;;;5071419;28;20060;-64
2021/03/29 02:36:02;;;;;;;16.25;6.25;;;;;;;;;;5071435;28;20097;-65
2021/03/29 02:38:29;;;;;;;18.25;6.30;;;;;;;;;;5071461;28;20110;-67
2021/03/29 02:40:56;;;;;;;22.92;7.00;;;;;;;;;;5071896;28;20418;-64
2021/03/29 02:43:23;;;;;;;15.00;6.22;;;;;;;;;;5071131;28;20044;-66
2021/03/29 02:45:55;;;;;;;20.30;6.38;;;13.80;48.90;;;;;;5071524;28;20078;-66
2021/03/29 02:48:27;;;;;;;18.80;6.32;;;13.80;49.00;;;;;;5071064;28;20053;-66
2021/03/29 02:50:56;;;;;;;18.70;7.15;;;13.80;49.00;;;;;;5053531;28;20052;-65
2021/03/29 02:53:30;;;;;;;16.52;6.47;;;13.70;49.00;;;;;;5071375;28;20123;-66
2021/03/29 02:56:04;;;;;;;13.25;5.90;;;13.70;48.60;;;;;;5071364;28;20049;-65
2021/03/29 02:58:32;;;;;;;17.05;6.15;;;13.90;48.60;;;;;;5071449;28;20049;-66
2021/03/29 03:01:00;;;;;;;22.83;6.07;;;;;;;;;;5071726;28;20056;-66
2021/03/29 03:03:27;;;;;;;22.70;7.68;;;14.00;48.00;;;;;;5071045;28;20514;-64
2021/03/29 03:05:55;;;;;;;26.98;7.70;;;13.90;47.90;;;;;;5071429;28;20402;-65
2021/03/29 03:08:23;;;;;;;16.73;5.35;;;13.90;48.10;;;;;;5071732;28;20033;-65
2021/03/29 03:10:50;;;;;;;19.50;6.47;;;;;;;;;;5071111;28;20049;-65
2021/03/29 03:13:17;;;;;;;19.80;6.50;;;;;;;;;;5071185;28;20063;-66
2021/03/29 03:15:45;;;;;;;16.85;5.53;;;;;;;;;;5071276;28;20040;-65
2021/03/29 03:18:14;;;;;;;19.13;5.88;;;;;;;;;;5071211;28;20075;-65
2021/03/29 03:20:42;;;;;;;18.65;5.80;;;;;;;;;;5071444;28;20044;-63
2021/03/29 03:23:09;;;;;;;16.67;5.60;;;;;;;;;;5053650;28;20048;-65
2021/03/29 03:25:39;;;;;;;18.38;6.72;;;13.70;48.30;;;;;;5071239;28;20059;-64
2021/03/29 03:28:08;;;;;;;17.58;5.53;;;13.90;48.30;;;;;;5071098;28;20040;-66
2021/03/29 03:30:38;;;;;;;11.27;5.05;;;13.90;48.30;;;;;;5071364;28;20044;-65
2021/03/29 03:33:06;;;;;;;13.00;5.38;;;14.10;48.00;;;;;;5070441;28;20384;-63
2021/03/29 03:35:35;;;;;;;18.05;5.68;;;13.90;47.80;;;;;;5069813;28;20552;-66
2021/03/29 03:38:12;;;;;;;16.88;5.90;;;14.20;47.70;;;;;;5071070;28;20052;-66
2021/03/29 03:40:42;;;;;;;17.90;5.57;;;14.20;47.40;;;;;;5073927;28;20059;-65
2021/03/29 03:43:11;;;;;;;14.50;4.97;;;14.00;47.70;;;;;;5074564;28;20064;-64
2021/03/29 03:45:42;;;;;;;18.00;6.10;;;14.10;47.80;;;;;;5074261;28;20090;-65
2021/03/29 03:48:10;;;;;;;16.90;5.50;;;;;;;;;;5074616;28;20048;-65
2021/03/29 03:50:37;;;;;;;13.20;5.22;;;14.00;47.80;;;;;;5074613;28;20045;-65
2021/03/29 03:53:05;;;;;;;15.15;5.55;;;14.20;47.40;;;;;;5074564;28;20106;-65
2021/03/29 03:55:32;;;;;;;13.32;5.68;;;14.20;47.20;;;;;;5074512;28;20056;-65
2021/03/29 03:58:01;;;;;;;15.82;5.30;;;14.10;47.40;;;;;;5074713;28;20057;-65
2021/03/29 04:00:29;;;;;;;16.85;5.63;;;14.00;47.70;;;;;;5056078;28;20127;-64
2021/03/29 04:02:56;;;;;;;16.30;6.13;;;;;;;;;;5074299;28;20040;-64
2021/03/29 04:05:23;;;;;;;18.55;5.65;;;;;;;;;;5074114;28;20044;-67
2021/03/29 04:08:10;;;;;;;15.85;5.38;;;;;;;;;;5056568;28;20040;-66
2021/03/29 04:10:44;;;;;;;17.63;5.55;;;;;;;;;;5073930;28;20052;-63
2021/03/29 04:13:15;;;;;;;19.20;5.47;;;14.00;47.90;;;;;;5073863;28;20029;-64
2021/03/29 04:15:42;;;;;;;12.43;4.93;;;;;;;;;;5073406;28;20044;-66
2021/03/29 04:18:09;;;;;;;14.00;5.05;;;14.10;47.60;;;;;;5074204;28;20063;-66
2021/03/29 04:20:36;;;;;;;19.13;5.38;;;;;;;;;;5074039;28;20063;-64
2021/03/29 04:23:04;;;;;;;18.15;4.95;;;;;;;;;;5073926;28;20040;-64
2021/03/29 04:25:31;;;;;;;14.23;4.80;;;;;;;;;;5074004;28;20056;-64
2021/03/29 04:27:58;;;;;;;17.10;5.85;;;;;;;;;;5074018;28;20425;-65
2021/03/29 04:30:26;;;;;;;16.33;5.20;;;13.80;47.70;;;;;;5073464;28;20064;-64
2021/03/29 04:32:53;;;;;;;14.25;4.93;;;;;;;;;;5073817;28;20078;-63
2021/03/29 04:35:22;;;;;;;10.05;4.70;;;13.80;48.30;;;;;;5074016;28;20045;-67
2021/03/29 04:37:50;;;;;;;13.98;4.80;;;13.80;48.40;;;;;;5073614;28;20072;-64
2021/03/29 04:40:20;;;;;;;14.75;5.40;;;13.80;48.30;;;;;;5074215;28;20474;-64
2021/03/29 04:42:47;;;;;;;16.20;5.13;;;;;;;;;;5073646;28;20044;-64
2021/03/29 04:45:15;;;;;;;10.80;5.03;;;13.70;48.10;;;;;;5072892;28;20044;-66
2021/03/29 04:47:42;;;;;;;20.23;5.47;;;;;;;;;;5055669;28;20040;-65
2021/03/29 04:50:09;;;;;;;18.25;5.38;;;;;;;;;;5073509;28;20049;-66
2021/03/29 04:52:36;;;;;;;15.65;4.78;;;;;;;;;;5073270;28;20110;-66
2021/03/29 04:55:05;;;;;;;14.02;4.97;;;14.00;47.80;;;;;;5073139;28;20434;-66
2021/03/29 04:57:32;;;;;;;17.55;5.40;;;;;;;;;;5073499;28;20048;-66
2021/03/29 04:59:59;;;;;;;16.08;5.00;;;;;;;;;;5054919;28;20060;-64
2021/03/29 05:02:26;;;;;;;12.10;4.47;;;;;;;;;;5073235;28;20044;-67
2021/03/29 05:04:53;;;;;;;19.00;4.68;;;;;;;;;;5073467;28;20045;-67
2021/03/29 05:07:22;;;;;;;22.38;5.53;;;;;;;;;;5072277;28;20044;-63
2021/03/29 05:09:49;;;;;;;14.77;4.95;;;;;;;;;;5072557;28;20450;-65
2021/03/29 05:12:19;;;;;;;17.60;5.25;;;;;;;;;;5069577;28;20048;-65
2021/03/29 05:14:46;;;;;;;15.20;4.85;;;;;;;;;;5072999;28;20866;-65
2021/03/29 05:17:13;;;;;;;14.63;5.10;;;;;;;;;;5059074;28;20060;-63
2021/03/29 05:19:40;;;;;;;28.77;5.63;;;;;;;;;;5072702;28;20033;-66
2021/03/29 05:22:08;;;;;;;12.82;4.57;;;13.80;49.00;;;;;;5072123;28;20522;-65
2021/03/29 05:24:36;;;;;;;16.67;4.65;;;13.90;48.60;;;;;;5072100;28;20040;-65
2021/03/29 05:27:04;;;;;;;15.18;5.25;;;14.00;48.50;;;;;;5071834;28;20043;-66
2021/03/29 05:29:43;;;;;;;12.75;4.68;;;;;;;;;;5072318;28;20115;-65
2021/03/29 05:32:21;;;;;;;12.93;4.50;;;13.70;49.30;;;;;;5071983;28;20051;-67
2021/03/29 05:34:51;;;;;;;18.08;4.93;;;13.60;49.70;;;;;;5069054;28;20164;-64
2021/03/29 05:37:19;;;;;;;13.40;4.30;;;13.60;49.50;;;;;;5072608;28;20040;-64
2021/03/29 05:39:51;;;;;;;11.00;4.70;;;13.40;49.60;;;;;;5072279;28;20083;-64
2021/03/29 05:42:18;;;;;;;14.05;4.35;;;;;;;;;;5071684;28;20047;-65
2021/03/29 05:44:46;;;;;;;13.20;5.00;;;13.80;49.30;;;;;;5072002;28;20060;-66
2021/03/29 05:47:15;;;;;;;13.77;4.50;;;13.80;49.20;;;;;;5072083;28;20037;-62
2021/03/29 05:49:42;;;;;;;14.60;5.00;;;14.00;49.20;;;;;;5072215;28;20095;-64
2021/03/29 05:52:09;;;;;;;14.75;5.07;;;;;;;;;;5071676;28;20098;-64
2021/03/29 05:54:38;;;;;;;16.55;4.93;;;;;;;;;;5071844;28;20424;-65
2021/03/29 05:57:05;;;;;;;16.20;4.95;;;;;;;;;;5071379;28;20121;-65
2021/03/29 06:02:01;;;;;;;22.92;4.57;;;14.00;49.60;;;;;;5071423;28;20044;-65
2021/03/29 06:04:47;;;;;;;11.80;4.22;;;13.90;49.20;;;;;;5070578;28;20150;-64
2021/03/29 06:07:16;;;;;;;12.23;4.78;;;13.80;49.70;;;;;;5071755;28;20048;-65
2021/03/29 06:09:44;;;;;;;18.13;4.72;;;14.00;49.40;;;;;;4717729;28;10000193;-65
2021/03/29 06:12:13;;;;;;;15.73;5.10;;;14.00;49.40;;;;;;5067993;28;20457;-63
2021/03/29 06:14:43;;;;;;;13.65;4.65;;;14.10;49.40;;;;;;5055063;28;20544;-64
2021/03/29 06:17:11;;;;;;;16.88;5.20;;;14.30;48.50;;;;;;5069151;28;20437;-64
2021/03/29 06:19:44;;;;;;;15.82;4.43;;;;;;;;;;5065479;28;20048;-64
2021/03/29 06:22:11;;;;;;;12.70;4.80;;;;;;;;;;5059794;28;20037;-66
2021/03/29 06:24:51;;;;;;;11.73;4.57;;;14.50;48.30;;;;;;5071355;28;20491;-65
2021/03/29 06:27:19;;;;;;;14.57;4.88;;;14.20;48.90;;;;;;5071111;28;20449;-64
2021/03/29 06:29:47;;;;;;;15.95;5.00;;;;;;;;;;5071442;28;20115;-65
2021/03/29 06:32:20;;;;;;;13.13;5.07;;;14.30;49.00;;;;;;5071513;28;20474;-66
2021/03/29 06:34:47;;;;;;;14.18;5.05;;;;;;;;;;5067535;28;20072;-66
2021/03/29 06:37:18;;;;;;;17.95;5.10;;;14.50;48.50;;;;;;5071221;28;20040;-66
2021/03/29 06:39:46;;;;;;;16.30;5.22;;;;;;;;;;5070400;28;20052;-66
2021/03/29 06:42:13;;;;;;;15.73;4.95;;;;;;;;;;5052862;28;20053;-64
2021/03/29 06:44:40;;;;;;;12.88;5.20;;;;;;;;;;5052808;28;20052;-67
2021/03/29 06:47:15;;;;;;;13.40;4.97;;;14.30;49.30;;;;;;5070822;28;20052;-67
2021/03/29 06:49:42;;;;;;;15.38;5.13;;;;;;;;;;5070654;28;20044;-66
2021/03/29 06:52:28;;;;;;;14.00;4.70;;;14.30;49.20;;;;;;5052594;28;20100;-65
2021/03/29 06:55:21;;;;;;;12.35;4.75;;;14.50;48.90;;;;;;5070045;28;20159;-66
2021/03/29 06:58:05;;;;;;;15.07;5.28;;;14.60;48.60;;;;;;5070683;28;20041;-67
2021/03/29 07:00:37;;;;;;;15.05;4.55;;;14.70;48.50;;;;;;5070565;28;20113;-65
2021/03/29 07:03:06;;;;;;;14.57;5.28;;;14.70;48.20;;;;;;5071050;28;20135;-67
2021/03/29 07:05:34;;;;;;;14.00;4.80;;;14.70;48.70;;;;;;5070716;28;20047;-66
2021/03/29 07:08:03;;;;;;;13.38;5.07;;;14.80;48.10;;;;;;5071072;28;20045;-64
2021/03/29 07:10:30;;;;;;;15.95;4.95;;;;;;;;;;5052124;28;20139;-66
2021/03/29 07:12:57;;;;;;;12.48;4.68;;;15.20;47.60;;;;;;5070847;28;20086;-68
2021/03/29 07:15:25;;;;;;;14.77;5.18;;;15.30;47.50;;;;;;5073078;28;20052;-67
2021/03/29 07:17:52;;;;;;;14.57;5.25;;;15.60;47.30;;;;;;5074537;28;20041;-67
2021/03/29 07:20:26;;;;;;;23.90;5.75;;;15.40;47.00;;;;;;5074586;28;20441;-65
2021/03/29 07:22:54;;;;;;;12.30;4.53;;;15.50;46.80;;;;;;5074207;28;20045;-65
2021/03/29 07:25:28;;;;;;;20.20;4.72;;;15.50;47.00;;;;;;5074606;28;20441;-65
2021/03/29 07:27:56;;;;;;;14.63;4.78;;;15.70;46.60;;;;;;5056730;28;20044;-66
2021/03/29 07:30:41;;;;;;;20.05;5.20;;;15.70;46.50;;;;;;5074654;28;20045;-66
2021/03/29 07:33:10;;;;;;;12.77;4.03;;;;;;;;;;5043083;28;20044;-66
2021/03/29 07:35:48;;;;;;;21.92;5.03;;;15.90;46.60;;;;;;5074054;28;20423;-65
2021/03/29 07:38:15;;;;;;;10.88;4.32;;;;;;;;;;5073777;28;20465;-65
2021/03/29 07:40:44;;;;;;;16.23;4.60;;;16.00;46.20;;;;;;5074660;28;20049;-64
2021/03/29 07:43:15;;;;;;;13.73;4.65;;;16.20;46.10;;;;;;5074396;28;20449;-66
2021/03/29 07:45:48;;;;;;;17.05;4.57;;;16.50;45.30;;;;;;5074028;28;20032;-66
2021/03/29 07:48:31;;;;;;;18.98;4.65;;;16.50;45.40;;;;;;5054143;28;20102;-66
2021/03/29 07:50:58;;;;;;;12.55;4.35;;;16.60;45.40;;;;;;5074368;28;20112;-66
2021/03/29 07:53:43;;;;;;;13.85;3.88;;;16.70;44.70;;;;;;5073418;28;20047;-65
2021/03/29 07:56:11;;;;;;;19.52;4.47;;;16.70;44.80;;;;;;5072621;28;20121;-65
2021/03/29 07:58:46;;;;;;;12.13;4.05;;;16.90;44.60;;;;;;5071974;28;20514;-63
2021/03/29 08:01:14;;;;;;;13.50;4.47;;;16.90;44.30;;;;;;5073074;28;20040;-66
2021/03/29 08:03:45;;;;;;;16.65;4.07;;;17.10;44.20;;;;;;5074128;28;20121;-65
2021/03/29 08:06:36;;;;;;;20.10;5.13;;;17.10;43.70;;;;;;5073338;28;20052;-65
2021/03/29 08:09:05;;;;;;;13.48;4.38;;;17.20;43.40;;;;;;5056176;28;20041;-65
2021/03/29 08:12:01;;;;;;;17.58;4.13;;;17.30;43.40;;;;;;5072060;28;20475;-67
2021/03/29 08:14:33;;;;;;;10.10;4.05;;;17.10;43.50;;;;;;5061511;28;20040;-67
2021/03/29 08:17:57;;;;;;;13.00;4.40;;;17.10;43.80;;;;;;5073322;28;20045;-64
2021/03/29 08:20:36;;;;;;;15.18;4.60;;;17.10;44.00;;;;;;4991738;28;20058;-66
2021/03/29 08:23:42;;;;;;;17.05;4.47;;;17.20;42.80;;;;;;4990953;28;20489;-67
2021/03/29 08:26:15;;;;;;;15.65;4.25;;;17.20;42.80;;;;;;4990668;28;20493;-65
2021/03/29 08:29:06;;;;;;;15.00;4.35;;;17.30;43.00;;;;;;4991799;28;20386;-65
2021/03/29 08:32:16;;;;;;;14.20;4.57;;;17.20;42.80;;;;;;4991185;28;20140;-67
2021/03/29 08:34:43;;;;;;;12.95;4.10;;;;;;;;;;5008100;28;20382;-64
2021/03/29 08:37:12;;;;;;;11.63;4.38;;;17.00;43.10;;;;;;4990860;28;20085;-66
2021/03/29 08:39:44;;;;;;;10.65;3.80;;;17.00;42.60;;;;;;4991442;28;20089;-65
2021/03/29 08:42:13;;;;;;;11.25;4.10;;;16.90;42.60;;;;;;4991620;28;20046;-66
2021/03/29 08:44:43;;;;;;;16.92;4.75;;;17.10;42.80;;;;;;4991504;28;20060;-66
2021/03/29 08:47:12;;;;;;;14.38;4.60;;;17.20;41.90;;;;;;4992992;28;20042;-67
2021/03/29 08:49:40;;;;;;;13.10;4.28;;;17.20;42.30;;;;;;4993174;28;20042;-66
2021/03/29 08:52:08;;;;;;;18.67;5.25;;;17.30;42.30;;;;;;5055682;28;20052;-67
2021/03/29 08:54:45;;;;;;;12.52;4.32;;;17.30;41.90;;;;;;5074093;28;20410;-67
2021/03/29 08:57:12;;;;;;;12.18;4.10;;;;;;;;;;5073074;28;20045;-65
2021/03/29 08:59:39;;;;;;;17.48;4.32;;;17.50;40.90;;;;;;5071362;28;20052;-66
2021/03/29 09:02:16;;;;;;;;;;;18.30;41.90;;;;;;5073976;28;20044;-66
2021/03/29 09:04:57;;;;;;;16.80;4.15;;;17.80;40.30;;;;;;5073624;28;20385;-64
2021/03/29 09:07:29;;;;;;;14.55;4.15;;;17.80;40.30;;;;;;5062117;28;20135;-65
2021/03/29 09:09:56;;;;;;;11.63;3.83;;;17.80;39.20;;;;;;5072795;28;20044;-67
2021/03/29 09:12:29;;;;;;;12.55;3.78;;;17.80;38.90;;;;;;5072329;28;20080;-66
2021/03/29 09:14:56;;;;;;;16.08;3.90;;;18.10;39.10;;;;;;5072565;28;20055;-64
2021/03/29 09:17:32;;;;;;;13.48;4.20;;;18.10;38.60;;;;;;5058755;28;20109;-66
2021/03/29 09:20:01;;;;;;;11.73;4.00;;;18.30;38.00;;;;;;5072336;28;20466;-66
2021/03/29 09:22:31;;;;;;;14.73;4.03;;;18.30;37.40;;;;;;5072500;28;20061;-65
2021/03/29 09:24:58;;;;;;;11.43;3.63;;;18.40;37.30;;;;;;5072315;28;20094;-65
2021/03/29 09:27:31;;;;;;;10.95;3.33;;;18.50;36.50;;;;;;5072528;28;20044;-66
2021/03/29 09:30:00;;;;;;;13.45;4.28;;;18.40;36.40;;;;;;5072809;28;20056;-66
2021/03/29 09:32:30;;;;;;;9.52;3.47;;;18.50;35.90;;;;;;5055061;28;20041;-66
2021/03/29 09:34:57;;;;;;;17.92;4.32;;;18.50;36.00;;;;;;5071430;28;20044;-65
2021/03/29 09:37:26;;;;;;;10.70;3.85;;;18.50;36.30;;;;;;5070951;28;20041;-66
2021/03/29 09:40:01;;;;;;;11.57;3.40;;;18.70;36.40;;;;;;5071935;28;20378;-66
2021/03/29 09:42:48;;;;;;;8.25;3.38;;;18.70;36.00;;;;;;5071628;28;20132;-65
2021/03/29 09:45:24;;;;;;;8.15;3.70;;;18.80;35.90;;;;;;5071834;28;20045;-65
2021/03/29 09:48:09;;;;;;;15.63;3.83;;;18.70;35.20;;;;;;5071256;28;20041;-67
2021/03/29 09:50:41;;;;;;;12.82;3.70;;;18.70;35.10;;;;;;5072050;28;20072;-66
2021/03/29 09:53:19;;;;;;;12.80;3.70;;;18.90;34.40;;;;;;5071693;28;20415;-66
2021/03/29 09:55:50;;;;;;;9.15;3.65;;;18.90;34.50;;;;;;5059150;28;20041;-66
2021/03/29 09:58:30;;;;;;;9.00;3.40;;;19.10;34.40;;;;;;5071480;28;20483;-65
2021/03/29 10:01:03;;;;;;;11.32;3.67;;;19.10;35.30;;;;;;5054029;28;20052;-67
2021/03/29 10:04:00;;;;;;;9.60;3.53;;;19.20;34.80;;;;;;5070826;28;20098;-66
2021/03/29 10:06:30;;;;;;;9.45;3.40;;;19.20;34.30;;;;;;5071332;28;20040;-66
2021/03/29 10:09:01;;;;;;;14.07;4.25;;;19.20;34.40;;;;;;5070890;28;20048;-66
2021/03/29 10:11:45;;;;;;;12.52;3.75;;;19.20;34.30;;;;;;5053227;28;20060;-64
2021/03/29 10:14:15;;;;;;;9.82;3.50;;;19.20;34.20;;;;;;5053043;28;20470;-65
2021/03/29 10:16:49;;;;;;;8.32;3.53;;;19.30;33.50;;;;;;5070999;28;20151;-67
2021/03/29 10:19:21;;;;;;;11.73;3.40;;;19.40;32.80;;;;;;5070893;28;20127;-63
2021/03/29 10:22:17;;;;;;;9.00;3.58;;;19.30;33.10;;;;;;5071126;28;20075;-66
2021/03/29 10:24:56;;;;;;;11.05;3.20;;;19.60;32.50;;;;;;5069827;28;20076;-63
2021/03/29 10:27:35;;;;;;;7.10;3.10;;;19.60;31.50;;;;;;5053051;28;20056;-67
2021/03/29 10:30:04;;;;;;;11.57;3.50;;;19.60;31.70;;;;;;5070849;28;20818;-64
2021/03/29 10:32:30;;;;;;;9.55;3.55;;;19.70;31.90;;;;;;5069977;28;20389;-68
2021/03/29 10:34:57;;;;;;;8.02;3.30;;;20.00;30.40;;;;;;5070858;28;20040;-67
2021/03/29 10:37:29;;;;;;;10.70;3.53;;;20.60;30.60;;;;;;5070690;28;20402;-67
2021/03/29 10:39:58;;;;;;;11.52;3.70;;;21.00;28.50;;;;;;5070701;28;20418;-66
2021/03/29 10:42:34;;;;;;;11.20;3.47;;;21.30;29.00;;;;;;5071113;28;20056;-67
2021/03/29 10:45:05;;;;;;;11.27;3.10;;;21.70;28.70;;;;;;5070414;28;20044;-67
2021/03/29 10:47:32;;;;;;;13.32;3.63;;;21.80;28.70;;;;;;5070174;28;20079;-66
2021/03/29 10:49:59;;;;;;;9.98;3.03;;;22.30;27.70;;;;;;5070092;28;20390;-66
2021/03/29 10:52:26;;;;;;;11.75;3.63;;;22.40;27.50;;;;;;5036102;28;20422;-65
2021/03/29 10:54:52;;;;;;;;;;;22.40;28.20;;;;;;5071057;28;20056;-64
2021/03/29 10:57:19;;;;;;;11.77;3.00;;;22.70;28.40;;;;;;5070591;28;20290;-63
2021/03/29 10:59:54;;;;;;;12.32;2.80;;;22.50;26.70;;;;;;5070448;28;20049;-65
2021/03/29 11:02:22;;;;;;;11.32;3.20;;;22.90;27.00;;;;;;5070132;28;20040;-65
2021/03/29 11:04:49;;;;;;;11.15;3.50;;;22.80;27.70;;;;;;5070483;28;20045;-65
2021/03/29 11:07:16;;;;;;;9.77;2.97;;;23.30;26.60;;;;;;5070899;28;20033;-64
2021/03/29 11:09:43;;;;;;;7.43;3.40;;;23.50;26.20;;;;;;5070274;28;20448;-65
2021/03/29 11:12:18;;;;;;;11.40;3.80;;;23.60;25.00;;;;;;5069936;28;20056;-69
2021/03/29 11:14:46;;;;;;;8.32;3.00;;;23.50;25.00;;;;;;5070511;28;20779;-68
2021/03/29 11:17:13;;;;;;;12.50;3.88;;;23.40;26.40;;;;;;5070245;28;20072;-70
2021/03/29 11:19:40;;;;;;;10.25;3.30;;;23.50;26.20;;;;;;5052444;28;20049;-64
2021/03/29 11:22:06;;;;;;;13.82;3.20;;;23.70;25.80;;;;;;5069835;28;20706;-70
2021/03/29 11:24:33;;;;;;;14.43;3.13;;;23.70;25.70;;;;;;5070108;28;20131;-63
2021/03/29 11:27:00;;;;;;;10.05;2.80;;;23.70;25.70;;;;;;5070463;28;20062;-64
2021/03/29 11:29:27;;;;;;;;;;;23.90;24.70;;;;;;5070510;28;20037;-64
2021/03/29 11:31:54;;;;;;;8.93;3.03;;;23.90;24.50;;;;;;5070013;28;19924;-64
2021/03/29 11:34:20;;;;;;;7.28;3.33;;;23.90;24.40;;;;;;5070060;28;20344;-68
2021/03/29 11:36:47;;;;;;;;;;;24.20;25.10;;;;;;5070371;28;20036;-64
2021/03/29 11:39:14;;;;;;;15.40;3.78;;;24.40;23.50;;;;;;5069892;28;19924;-64
2021/03/29 11:41:41;;;;;;;9.75;3.80;;;24.40;24.20;;;;;;5070124;28;20037;-64
2021/03/29 11:44:09;;;;;;;18.20;4.15;;;24.40;24.80;;;;;;5070151;28;20556;-65
2021/03/29 11:46:35;;;;;;;15.93;4.10;;;24.80;24.00;;;;;;5070246;28;20578;-65
2021/03/29 11:49:03;;;;;;;11.10;3.65;;;24.90;24.10;;;;;;5070267;28;20102;-65
2021/03/29 11:51:30;;;;;;;10.82;3.65;;;25.00;24.20;;;;;;5069652;28;20115;-65
2021/03/29 11:53:57;;;;;;;9.27;3.10;;;25.10;23.10;;;;;;5069948;28;20506;-64
2021/03/29 11:56:24;;;;;;;12.80;3.58;;;25.00;23.40;;;;;;5069952;28;20055;-69
2021/03/29 11:58:51;;;;;;;13.85;3.25;;;25.00;23.70;;;;;;5068059;28;20881;-65
2021/03/29 12:04:11;;;;;;;8.00;3.63;;;24.70;23.60;;;;;;5059827;28;20396;-66
2021/03/29 12:14:38;;;;;;;10.88;3.42;;;24.80;22.90;;;;;;5073057;28;20040;-65
2021/03/29 12:17:07;;;;;;;9.77;3.22;;;24.70;23.20;;;;;;5073130;28;20040;-65
2021/03/29 12:19:37;;;;;;;13.25;3.08;;;24.60;22.70;;;;;;5072053;28;20056;-66
2021/03/29 12:22:18;;;;;;;10.10;3.40;;;24.60;22.40;;;;;;5066480;28;20503;-68
2021/03/29 12:24:49;;;;;;;10.75;3.97;;;24.80;22.80;;;;;;5066740;28;20498;-66
2021/03/29 12:27:17;;;;;;;9.90;3.10;;;24.80;22.40;;;;;;5067569;28;20044;-65
2021/03/29 12:29:45;;;;;;;10.23;3.25;;;24.80;22.40;;;;;;5071589;28;20040;-67
2021/03/29 12:32:14;;;;;;;11.30;3.10;;;24.70;21.80;;;;;;5072897;28;20048;-65
2021/03/29 12:35:01;;;;;;;13.27;3.30;;;24.70;22.70;;;;;;5072743;28;20142;-64
2021/03/29 12:37:30;;;;;;;8.38;2.70;;;25.00;22.80;;;;;;5073054;28;20045;-65
2021/03/29 12:40:05;;;;;;;10.52;3.15;;;25.10;21.50;;;;;;5054810;28;20032;-66
2021/03/29 12:42:37;;;;;;;10.93;3.20;;;24.90;22.10;;;;;;5072332;28;20411;-66
2021/03/29 12:45:05;;;;;;;12.02;3.05;;;24.80;22.10;;;;;;5072838;28;20044;-64
2021/03/29 12:47:36;;;;;;;7.68;2.85;;;25.00;22.30;;;;;;5073250;28;20044;-64
2021/03/29 12:50:13;;;;;;;10.57;3.20;;;25.10;22.20;;;;;;5072255;28;20043;-67
2021/03/29 12:52:41;;;;;;;9.40;3.05;;;25.10;21.90;;;;;;5072236;28;20068;-66
2021/03/29 12:55:13;;;;;;;8.95;3.20;;;25.10;22.30;;;;;;5072451;28;20056;-66
2021/03/29 12:57:40;;;;;;;9.82;2.83;;;25.00;22.40;;;;;;5072170;28;20518;-65
2021/03/29 13:00:10;;;;;;;8.82;3.10;;;25.10;22.60;;;;;;5054707;28;20064;-67
2021/03/29 13:02:37;;;;;;;11.25;2.70;;;;;;;;;;5072556;28;20075;-67
2021/03/29 13:05:08;;;;;;;8.30;3.45;;;26.30;21.40;;;;;;5072311;28;20055;-65
2021/03/29 13:07:53;;;;;;;13.63;3.03;;;26.20;21.20;;;;;;5072122;28;20106;-65
2021/03/29 13:12:56;;;;;;;;;;;26.20;21.50;;;;;;5071926;28;20051;-65
2021/03/29 13:15:23;;;;;;;9.57;3.20;;;26.30;21.60;;;;;;5070987;28;19928;-65
2021/03/29 13:17:50;;;;;;;10.88;3.15;;;26.20;22.30;;;;;;5058969;28;20060;-65
2021/03/29 13:20:19;;;;;;;9.68;3.30;;;26.20;21.10;;;;;;5071657;28;20048;-66
2021/03/29 13:22:47;;;;;;;11.45;3.38;;;26.10;21.50;;;;;;5072263;28;20044;-66
2021/03/29 13:25:30;;;;;;;8.57;2.85;;;26.10;21.40;;;;;;5071343;28;20414;-64
2021/03/29 13:27:59;;;;;;;;;;;25.90;20.70;;;;;;5037793;28;20501;-64
2021/03/29 13:30:27;;;;;;;7.38;2.85;;;25.70;21.20;;;;;;5064755;28;19992;-64
2021/03/29 13:32:58;;;;;;;10.30;3.17;;;25.70;21.50;;;;;;5053972;28;20040;-64
2021/03/29 13:35:26;;;;;;;13.15;3.60;;;26.00;21.30;;;;;;5071942;28;20040;-66
2021/03/29 13:37:53;;;;;;;9.48;3.33;;;26.00;21.80;;;;;;5070125;28;20150;-63